North Bend, Ohio
Current Conditions -  °F | °C
As of 8:52 PM on Saturday 22 Nov 2014 (Local Time) from KCVG Reporting Station
Broken Clouds Broken Clouds  
Wind Chill: 46°   Ceiling: 20000
Heat Index: 49°   Visibility: 10mi
Dew Point: 32°   Wind: 7mph
Humidity: 52%   Direction: 180°S
Pressure: 30.07"   Gusts: NA
Location:  39.15°N, 84.75°W
Report Text: KCVG 230152Z 18006KT 10SM SCT110 BKN200 09/00 A3007 RMK AO2 SLP185 T00940000
Loading
Personal Weather Stations






























Interactive Weather Map New forecast layout! Learn more

10-Day Weather Forecast

Advertisements
Track Severe Weather on mobile